createdAt,value
2022-07-28T00:01:52.705Z,101304.94
2022-07-28T00:04:21.858Z,101313.28
2022-07-28T00:06:50.109Z,101307.19
2022-07-28T00:09:21.273Z,101301.38
2022-07-28T00:11:50.384Z,101302.34
2022-07-28T00:14:28.247Z,101304.34
2022-07-28T00:16:56.992Z,101308.88
2022-07-28T00:19:27.615Z,101309.03
2022-07-28T00:21:56.180Z,101312.13
2022-07-28T00:24:26.672Z,101312.53
2022-07-28T00:26:55.472Z,101309.38
2022-07-28T00:29:26.182Z,101310.34
2022-07-28T00:32:14.682Z,101309.13
2022-07-28T00:34:43.169Z,101302.63
2022-07-28T00:37:14.583Z,101305.16
2022-07-28T00:39:43.406Z,101301.47
2022-07-28T00:42:12.386Z,101296.94
2022-07-28T00:44:42.763Z,101299.78
2022-07-28T00:47:13.049Z,101292.41
2022-07-28T00:49:42.027Z,101287.31
2022-07-28T00:52:15.091Z,101290.28
2022-07-28T00:54:43.308Z,101283.91
2022-07-28T00:57:11.565Z,101280.75
2022-07-28T00:59:41.714Z,101281.03
2022-07-28T01:02:13.766Z,101289.53
2022-07-28T01:04:42.720Z,101285.25
2022-07-28T01:07:21.217Z,101286.50
2022-07-28T01:09:58.198Z,101293.88
2022-07-28T01:12:38.958Z,101296.84
2022-07-28T01:15:17.151Z,101293.31
2022-07-28T01:17:55.247Z,101291.47
2022-07-28T01:20:32.771Z,101283.53
2022-07-28T01:23:35.593Z,101284.53
2022-07-28T01:26:21.102Z,101279.00
2022-07-28T01:29:04.708Z,101280.59
2022-07-28T01:31:40.950Z,101278.19
2022-07-28T01:34:14.980Z,101280.47
2022-07-28T01:36:47.727Z,101267.84
2022-07-28T01:39:19.122Z,101268.16
2022-07-28T01:41:51.183Z,101261.34
2022-07-28T01:44:25.253Z,101261.75
2022-07-28T01:46:58.107Z,101267.53
2022-07-28T01:49:29.327Z,101267.09
2022-07-28T01:52:00.631Z,101256.91
2022-07-28T01:54:32.455Z,101258.84
2022-07-28T01:57:04.557Z,101255.47
2022-07-28T01:59:34.676Z,101253.75
2022-07-28T02:02:06.698Z,101257.16
2022-07-28T02:04:37.693Z,101254.88
2022-07-28T02:07:08.367Z,101247.81
2022-07-28T02:09:38.257Z,101238.06
2022-07-28T02:12:11.610Z,101252.59
2022-07-28T02:14:40.680Z,101237.72
2022-07-28T02:17:14.985Z,101238.53
2022-07-28T02:19:47.360Z,101227.63
2022-07-28T02:22:17.878Z,101225.22
2022-07-28T02:24:47.390Z,101225.06
2022-07-28T02:27:21.032Z,101226.78
2022-07-28T02:29:53.006Z,101230.19
2022-07-28T02:32:31.465Z,101223.41
2022-07-28T02:35:10.686Z,101226.81
2022-07-28T02:37:43.118Z,101228.84
2022-07-28T02:40:16.004Z,101227.31
2022-07-28T02:42:48.584Z,101222.81
2022-07-28T02:45:22.625Z,101226.38
2022-07-28T02:47:57.431Z,101228.63
2022-07-28T02:50:29.121Z,101222.69
2022-07-28T02:53:15.159Z,101222.88
2022-07-28T02:55:48.929Z,101233.94
2022-07-28T02:58:19.908Z,101234.34
2022-07-28T03:00:49.558Z,101226.00
2022-07-28T03:03:20.761Z,101223.00
2022-07-28T03:05:50.262Z,101217.34
2022-07-28T03:08:18.980Z,101218.78
2022-07-28T03:10:47.446Z,101221.91
2022-07-28T03:13:15.764Z,101219.06
2022-07-28T03:15:46.953Z,101211.81
2022-07-28T03:18:15.293Z,101208.13
2022-07-28T03:20:45.385Z,101207.00
2022-07-28T03:23:13.784Z,101208.00
2022-07-28T03:25:48.374Z,101203.31
2022-07-28T03:28:20.115Z,101199.78
2022-07-28T03:30:53.910Z,101199.09
2022-07-28T03:33:22.349Z,101199.38
2022-07-28T03:35:54.949Z,101204.31
2022-07-28T03:38:27.148Z,101198.06
2022-07-28T03:40:58.928Z,101200.31
2022-07-28T03:43:29.119Z,101196.22
2022-07-28T03:45:57.411Z,101190.13
2022-07-28T03:48:30.540Z,101187.72
2022-07-28T03:51:00.611Z,101190.97
2022-07-28T03:53:30.369Z,101190.25
2022-07-28T03:55:59.052Z,101183.16
2022-07-28T03:58:29.203Z,101186.84
2022-07-28T04:00:58.811Z,101184.44
2022-07-28T04:03:42.890Z,101180.31
2022-07-28T04:06:15.421Z,101179.03
2022-07-28T04:08:44.555Z,101182.72
2022-07-28T04:11:16.565Z,101176.75
2022-07-28T04:13:44.920Z,101179.31
2022-07-28T04:16:13.302Z,101174.66
2022-07-28T04:18:42.397Z,101187.69
2022-07-28T04:21:11.160Z,101190.09
2022-07-28T04:23:41.192Z,101179.03
2022-07-28T04:26:10.796Z,101177.09
2022-07-28T04:28:41.710Z,101178.63
2022-07-28T04:31:10.391Z,101170.41
2022-07-28T04:33:39.512Z,101166.03
2022-07-28T04:36:08.094Z,101169.44
2022-07-28T04:38:38.952Z,101165.75
2022-07-28T04:41:08.866Z,101174.81
2022-07-28T04:43:38.128Z,101171.13
2022-07-28T04:46:06.725Z,101176.94
2022-07-28T04:48:35.141Z,101166.88
2022-07-28T04:51:03.605Z,101171.53
2022-07-28T04:53:32.529Z,101165.47
2022-07-28T04:56:00.776Z,101169.84
2022-07-28T04:58:32.881Z,101170.53
2022-07-28T05:01:01.391Z,101174.81
2022-07-28T05:03:35.728Z,101178.78
2022-07-28T05:06:05.161Z,101175.09
2022-07-28T05:08:33.503Z,101174.81
2022-07-28T05:11:02.114Z,101181.91
2022-07-28T05:13:34.264Z,101177.09
2022-07-28T05:16:03.089Z,101176.78
2022-07-28T05:18:33.585Z,101181.19
2022-07-28T05:21:02.226Z,101188.84
2022-07-28T05:23:30.633Z,101179.78
2022-07-28T05:26:07.509Z,101187.88
2022-07-28T05:28:46.380Z,101195.53
2022-07-28T05:31:15.393Z,101189.72
2022-07-28T05:33:43.829Z,101193.81
2022-07-28T05:36:13.646Z,101188.31
2022-07-28T05:38:42.299Z,101191.56
2022-07-28T05:41:10.693Z,101195.97
2022-07-28T05:43:40.610Z,101197.09
2022-07-28T05:46:09.027Z,101195.41
2022-07-28T05:48:37.518Z,101199.94
2022-07-28T05:51:07.255Z,101191.03
2022-07-28T05:53:35.662Z,101192.56
2022-07-28T05:56:04.257Z,101189.59
2022-07-28T05:58:33.104Z,101181.38
2022-07-28T06:01:03.662Z,101179.53
2022-07-28T06:03:41.454Z,101185.47
2022-07-28T06:06:16.304Z,101180.78
2022-07-28T06:08:47.381Z,101181.50
2022-07-28T06:11:21.911Z,101184.75
2022-07-28T06:13:52.599Z,101179.94
2022-07-28T06:16:24.476Z,101171.25
2022-07-28T06:18:53.226Z,101177.06
2022-07-28T06:21:24.625Z,101174.81
2022-07-28T06:23:53.118Z,101185.13
2022-07-28T06:26:23.594Z,101177.63
2022-07-28T06:28:52.614Z,101186.94
2022-07-28T06:31:22.491Z,101188.09
2022-07-28T06:33:51.070Z,101192.03
2022-07-28T06:36:19.527Z,101193.13
2022-07-28T06:38:48.029Z,101200.94
2022-07-28T06:41:16.589Z,101200.66
2022-07-28T06:43:45.324Z,101193.84
2022-07-28T06:46:18.724Z,101190.28
2022-07-28T06:48:48.724Z,101193.09
2022-07-28T06:51:19.915Z,101193.50
2022-07-28T06:53:49.569Z,101194.22
2022-07-28T06:56:20.222Z,101194.47
2022-07-28T06:58:50.058Z,101195.03
2022-07-28T07:01:18.426Z,101194.41
2022-07-28T07:03:46.738Z,101192.13
2022-07-28T07:06:17.035Z,101202.00
2022-07-28T07:08:47.300Z,101199.69
2022-07-28T07:11:17.624Z,101201.66
2022-07-28T07:13:46.015Z,101199.91
2022-07-28T07:16:15.563Z,101186.31
2022-07-28T07:18:48.622Z,101189.94
2022-07-28T07:21:20.331Z,101188.06
2022-07-28T07:23:51.259Z,101194.78
2022-07-28T07:26:19.577Z,101191.31
2022-07-28T07:28:48.077Z,101193.75
2022-07-28T07:31:18.745Z,101198.22
2022-07-28T07:33:50.223Z,101203.25
2022-07-28T07:36:22.027Z,101188.63
2022-07-28T07:38:51.752Z,101192.75
2022-07-28T07:41:22.030Z,101187.94
2022-07-28T07:43:51.599Z,101191.41
2022-07-28T07:46:23.201Z,101181.31
2022-07-28T07:48:54.334Z,101182.22
2022-07-28T07:51:24.755Z,101181.78
2022-07-28T07:53:55.996Z,101191.13
2022-07-28T07:56:27.346Z,101176.97
2022-07-28T07:58:57.251Z,101186.50
2022-07-28T08:01:28.130Z,101186.84
2022-07-28T08:03:59.993Z,101180.25
2022-07-28T08:06:31.346Z,101181.63
2022-07-28T08:09:01.135Z,101185.84
2022-07-28T08:11:30.010Z,101179.75
2022-07-28T08:13:59.425Z,101186.53
2022-07-28T08:16:28.339Z,101174.50
2022-07-28T08:18:58.503Z,101182.25
2022-07-28T08:21:27.183Z,101184.44
2022-07-28T08:23:59.437Z,101185.22
2022-07-28T08:26:29.997Z,101190.75
2022-07-28T08:29:00.492Z,101183.59
2022-07-28T08:31:29.449Z,101186.09
2022-07-28T08:33:58.723Z,101185.13
2022-07-28T08:36:27.879Z,101184.75
2022-07-28T08:38:58.473Z,101180.75
2022-07-28T08:41:57.915Z,101184.63
2022-07-28T08:44:33.288Z,101182.88
2022-07-28T08:47:08.038Z,101181.44
2022-07-28T08:49:40.365Z,101179.72
2022-07-28T08:52:12.464Z,101176.41
2022-07-28T08:54:46.432Z,101176.59
2022-07-28T08:57:18.939Z,101186.19
2022-07-28T08:59:50.853Z,101181.53
2022-07-28T09:02:20.839Z,101180.44
2022-07-28T09:04:51.825Z,101172.84
2022-07-28T09:07:20.798Z,101177.44
2022-07-28T09:09:52.163Z,101178.91
2022-07-28T09:12:26.747Z,101177.22
2022-07-28T09:14:59.464Z,101171.56
2022-07-28T09:17:28.056Z,101167.69
2022-07-28T09:19:57.812Z,101170.69
2022-07-28T09:22:27.232Z,101172.69
2022-07-28T09:24:57.420Z,101174.22
2022-07-28T09:27:28.639Z,101170.34
2022-07-28T09:30:23.512Z,101159.75
2022-07-28T09:33:44.141Z,101162.94
2022-07-28T09:36:23.107Z,101162.84
2022-07-28T09:39:12.070Z,101160.56
2022-07-28T09:48:13.490Z,101148.09
2022-07-28T09:50:58.843Z,101156.59
2022-07-28T09:53:43.201Z,101161.13
2022-07-28T09:56:13.407Z,101159.53
2022-07-28T09:58:43.888Z,101157.88
2022-07-28T10:01:16.866Z,101157.06
2022-07-28T10:03:52.175Z,101149.41
2022-07-28T10:06:31.448Z,101145.66
2022-07-28T10:09:02.777Z,101157.91
2022-07-28T10:11:41.332Z,101145.38
2022-07-28T10:14:14.052Z,101150.72
2022-07-28T10:17:06.507Z,101144.91
2022-07-28T10:19:37.166Z,101148.94
2022-07-28T10:25:14.578Z,101146.59
2022-07-28T10:27:47.143Z,101140.75
2022-07-28T10:30:16.898Z,101137.84
2022-07-28T10:32:51.904Z,101138.16
2022-07-28T10:35:21.201Z,101146.59
2022-07-28T10:37:55.815Z,101141.34
2022-07-28T10:40:30.048Z,101141.81
2022-07-28T10:42:59.862Z,101135.13
2022-07-28T10:45:47.964Z,101138.34
2022-07-28T10:48:23.667Z,101134.59
2022-07-28T10:50:56.985Z,101139.22
2022-07-28T10:53:37.305Z,101139.22
2022-07-28T10:56:18.741Z,101136.28
2022-07-28T10:59:02.808Z,101142.59
2022-07-28T11:01:53.143Z,101141.97
2022-07-28T11:05:01.818Z,101133.56
2022-07-28T11:07:41.141Z,101137.78
2022-07-28T11:10:21.689Z,101134.00
2022-07-28T11:13:01.600Z,101139.06
2022-07-28T11:15:39.078Z,101144.72
2022-07-28T11:18:11.198Z,101143.41
2022-07-28T11:21:09.554Z,101142.78
2022-07-28T11:24:10.566Z,101141.06
2022-07-28T11:27:02.348Z,101139.16
2022-07-28T11:29:47.996Z,101139.38
2022-07-28T11:32:23.520Z,101139.41
2022-07-28T11:35:36.141Z,101141.50
2022-07-28T11:38:15.944Z,101138.38
2022-07-28T11:40:47.645Z,101140.22
2022-07-28T11:43:45.729Z,101140.25
2022-07-28T11:46:40.004Z,101138.53
2022-07-28T11:49:26.282Z,101132.22
2022-07-28T11:52:21.233Z,101136.28
2022-07-28T11:54:54.257Z,101131.66
2022-07-28T11:57:26.256Z,101136.72
2022-07-28T12:00:13.317Z,101133.31
2022-07-28T12:02:45.892Z,101132.50
2022-07-28T12:05:15.775Z,101128.94
2022-07-28T12:07:48.195Z,101125.16
2022-07-28T12:10:53.833Z,101136.91
2022-07-28T12:13:29.536Z,101136.06
2022-07-28T12:16:12.730Z,101144.50
2022-07-28T12:18:43.115Z,101132.94
2022-07-28T12:21:12.394Z,101138.16
2022-07-28T12:23:46.241Z,101129.97
2022-07-28T12:26:40.688Z,101136.50
2022-07-28T12:29:15.995Z,101134.41
2022-07-28T12:31:59.526Z,101142.38
2022-07-28T12:34:30.709Z,101138.16
2022-07-28T12:37:02.249Z,101131.41
2022-07-28T12:39:32.620Z,101136.88
2022-07-28T12:42:04.883Z,101131.22
2022-07-28T12:44:38.142Z,101122.81
2022-07-28T12:47:09.880Z,101121.34
2022-07-28T12:49:57.834Z,101121.56
2022-07-28T12:52:29.311Z,101123.41
2022-07-28T12:54:59.528Z,101131.19
2022-07-28T12:57:51.405Z,101123.41
2022-07-28T13:00:27.736Z,101120.84
2022-07-28T13:02:58.373Z,101115.75
2022-07-28T13:05:34.965Z,101101.81
2022-07-28T13:08:04.971Z,101119.22
2022-07-28T13:10:34.956Z,101114.66
2022-07-28T13:13:09.967Z,101102.84
2022-07-28T13:15:40.294Z,101110.78
2022-07-28T13:18:08.996Z,101103.94
2022-07-28T13:20:52.335Z,101099.94
2022-07-28T13:23:24.288Z,101104.81
2022-07-28T13:26:00.798Z,101103.25
2022-07-28T13:28:30.659Z,101100.53
2022-07-28T13:30:59.892Z,101099.53
2022-07-28T13:33:29.044Z,101100.38
2022-07-28T13:36:08.553Z,101101.69
2022-07-28T13:38:38.563Z,101103.50
2022-07-28T13:41:08.557Z,101101.38
2022-07-28T13:43:50.725Z,101097.91
2022-07-28T13:46:20.567Z,101104.34
2022-07-28T13:48:58.160Z,101097.97
2022-07-28T13:51:30.517Z,101105.00
2022-07-28T13:54:03.254Z,101100.06
2022-07-28T13:56:36.784Z,101104.50
2022-07-28T13:59:07.274Z,101097.31
2022-07-28T14:01:37.724Z,101099.50
2022-07-28T14:04:06.239Z,101102.28
2022-07-28T14:06:51.003Z,101107.19
2022-07-28T14:09:21.348Z,101097.34
2022-07-28T14:11:53.619Z,101090.44
2022-07-28T14:14:25.462Z,101103.59
2022-07-28T14:16:55.565Z,101095.81
2022-07-28T14:19:38.230Z,101105.66
2022-07-28T14:25:06.359Z,101108.28
2022-07-28T14:27:43.512Z,101111.50
2022-07-28T14:30:17.387Z,101109.22
2022-07-28T14:32:46.646Z,101113.28
2022-07-28T14:38:49.859Z,101107.84
2022-07-28T14:40:50.934Z,101114.91
2022-07-28T14:43:22.297Z,101108.28
2022-07-28T14:46:14.853Z,101114.09
2022-07-28T14:48:45.007Z,101121.97
2022-07-28T14:51:15.146Z,101114.25
2022-07-28T14:53:51.584Z,101133.38
2022-07-28T14:56:21.284Z,101118.13
2022-07-28T14:58:50.319Z,101114.00
2022-07-28T15:01:18.646Z,101115.03
2022-07-28T15:03:49.619Z,101116.75
2022-07-28T15:06:30.951Z,101122.25
2022-07-28T15:09:03.193Z,101117.97
2022-07-28T15:11:35.661Z,101123.81
2022-07-28T15:14:04.616Z,101121.72
2022-07-28T15:16:33.182Z,101126.56
2022-07-28T15:19:01.951Z,101115.94
2022-07-28T15:21:35.910Z,101123.25
2022-07-28T15:24:08.690Z,101115.66
2022-07-28T15:26:37.605Z,101126.66
2022-07-28T15:29:09.242Z,101133.38
2022-07-28T15:31:37.989Z,101139.91
2022-07-28T15:34:08.603Z,101134.72
2022-07-28T15:36:38.826Z,101130.56
2022-07-28T15:39:14.604Z,101134.53
2022-07-28T15:41:43.706Z,101127.78
2022-07-28T15:44:25.830Z,101129.09
2022-07-28T15:46:55.199Z,101119.78
2022-07-28T15:49:25.500Z,101128.53
2022-07-28T15:52:01.015Z,101138.38
2022-07-28T15:54:32.825Z,101136.03
2022-07-28T15:57:01.032Z,101125.91
2022-07-28T15:59:48.702Z,101125.53
2022-07-28T16:02:19.027Z,101133.84
2022-07-28T16:04:53.480Z,101135.66
2022-07-28T16:07:25.202Z,101139.81
2022-07-28T16:10:00.471Z,101133.16
2022-07-28T16:12:33.562Z,101134.88
2022-07-28T16:15:04.259Z,101144.31
2022-07-28T16:17:38.835Z,101136.28
2022-07-28T16:20:10.435Z,101144.34
2022-07-28T16:22:43.206Z,101150.97
2022-07-28T16:25:16.941Z,101150.91
2022-07-28T16:27:47.878Z,101155.13
2022-07-28T16:30:17.343Z,101161.25
2022-07-28T16:32:45.858Z,101158.06
2022-07-28T16:35:15.901Z,101157.69
2022-07-28T16:37:44.234Z,101160.50
2022-07-28T16:40:23.041Z,101151.88
2022-07-28T16:42:53.437Z,101148.84
2022-07-28T16:45:22.020Z,101151.56
2022-07-28T16:47:50.471Z,101154.47
2022-07-28T16:50:19.093Z,101153.69
2022-07-28T16:52:49.789Z,101147.53
2022-07-28T16:55:23.409Z,101147.91
2022-07-28T16:57:53.527Z,101154.59
2022-07-28T17:00:25.749Z,101152.47
2022-07-28T17:02:54.220Z,101149.03
2022-07-28T17:05:22.974Z,101144.38
2022-07-28T17:07:51.409Z,101149.91
2022-07-28T17:10:27.164Z,101150.34
2022-07-28T17:12:56.602Z,101139.94
2022-07-28T17:15:24.968Z,101140.91
2022-07-28T17:17:53.504Z,101135.94
2022-07-28T17:20:22.180Z,101138.63
2022-07-28T17:22:50.458Z,101137.25
2022-07-28T17:28:08.807Z,101127.19
2022-07-28T17:30:37.576Z,101125.16
2022-07-28T17:33:08.755Z,101128.56
2022-07-28T17:38:29.608Z,101135.16
2022-07-28T17:41:04.306Z,101130.13
2022-07-28T17:43:35.050Z,101132.88
2022-07-28T17:46:08.438Z,101131.66
2022-07-28T17:48:39.340Z,101138.88
2022-07-28T17:51:07.863Z,101136.38
2022-07-28T17:53:38.965Z,101140.59
2022-07-28T17:56:08.884Z,101134.00
2022-07-28T17:58:39.839Z,101137.25
2022-07-28T18:01:12.335Z,101125.59
2022-07-28T18:03:56.976Z,101132.78
2022-07-28T18:06:30.935Z,101123.25
2022-07-28T18:09:06.057Z,101132.44
2022-07-28T18:11:37.723Z,101131.19
2022-07-28T18:14:26.690Z,101125.28
2022-07-28T18:16:57.260Z,101131.53
2022-07-28T18:19:25.622Z,101123.53
2022-07-28T18:21:53.886Z,101130.94
2022-07-28T18:24:23.749Z,101135.63
2022-07-28T18:26:55.570Z,101130.78
2022-07-28T18:29:26.446Z,101135.16
2022-07-28T18:32:09.736Z,101141.09
2022-07-28T18:34:39.749Z,101141.56
2022-07-28T18:37:08.604Z,101143.78
2022-07-28T18:39:38.226Z,101144.47
2022-07-28T18:42:07.351Z,101142.16
2022-07-28T18:44:37.382Z,101148.44
2022-07-28T18:47:07.146Z,101148.91
2022-07-28T18:49:37.927Z,101151.19
2022-07-28T18:52:07.648Z,101154.16
2022-07-28T18:54:42.278Z,101151.81
2022-07-28T18:57:15.748Z,101157.66
2022-07-28T18:59:51.652Z,101159.16
2022-07-28T19:02:20.549Z,101156.69
2022-07-28T19:04:51.677Z,101154.16
2022-07-28T19:07:20.198Z,101147.41
2022-07-28T19:09:48.490Z,101165.19
2022-07-28T19:12:18.225Z,101160.69
2022-07-28T19:14:49.266Z,101165.03
2022-07-28T19:17:26.049Z,101166.25
2022-07-28T19:19:56.316Z,101171.50
2022-07-28T19:22:27.122Z,101176.22
2022-07-28T19:24:55.748Z,101176.03
2022-07-28T19:27:24.401Z,101175.53
2022-07-28T19:29:54.907Z,101171.25
2022-07-28T19:32:24.819Z,101182.06
2022-07-28T19:34:53.187Z,101171.50
2022-07-28T19:37:23.228Z,101177.31
2022-07-28T19:39:51.530Z,101169.63
2022-07-28T19:42:19.828Z,101168.59
2022-07-28T19:44:51.023Z,101181.75
2022-07-28T19:47:25.623Z,101175.25
2022-07-28T19:49:53.768Z,101178.94
2022-07-28T19:52:39.975Z,101183.00
2022-07-28T19:55:21.916Z,101184.78
2022-07-28T19:57:55.130Z,101182.94
2022-07-28T20:00:24.020Z,101183.91
2022-07-28T20:02:53.962Z,101184.28
2022-07-28T20:05:22.521Z,101187.69
2022-07-28T20:07:51.411Z,101192.50
2022-07-28T20:10:20.466Z,101198.41
2022-07-28T20:12:48.783Z,101197.03
2022-07-28T20:15:17.306Z,101205.81
2022-07-28T20:17:46.123Z,101206.94
2022-07-28T20:20:16.492Z,101212.56
2022-07-28T20:22:45.795Z,101208.41
2022-07-28T20:25:14.959Z,101220.63
2022-07-28T20:27:44.444Z,101217.78
2022-07-28T20:30:14.638Z,101230.53
2022-07-28T20:32:44.334Z,101238.34
2022-07-28T20:35:13.107Z,101246.09
2022-07-28T20:37:43.211Z,101244.13
2022-07-28T20:40:12.515Z,101243.78
2022-07-28T20:42:41.017Z,101243.97
2022-07-28T20:45:10.171Z,101243.66
2022-07-28T20:47:39.235Z,101244.81
2022-07-28T20:50:08.613Z,101243.84
2022-07-28T20:52:36.930Z,101256.06
2022-07-28T20:55:07.881Z,101249.78
2022-07-28T20:57:36.914Z,101247.13
2022-07-28T21:00:09.463Z,101261.41
2022-07-28T21:02:39.149Z,101262.94
2022-07-28T21:05:08.497Z,101268.78
2022-07-28T21:08:04.778Z,101262.50
2022-07-28T21:10:36.557Z,101269.81
2022-07-28T21:13:04.995Z,101264.53
2022-07-28T21:15:40.239Z,101277.28
2022-07-28T21:18:09.844Z,101267.25
2022-07-28T21:20:39.987Z,101271.59
2022-07-28T21:23:14.540Z,101273.66
2022-07-28T21:25:47.518Z,101278.16
2022-07-28T21:28:30.006Z,101275.09
2022-07-28T21:31:01.596Z,101278.31
2022-07-28T21:33:30.792Z,101277.75
2022-07-28T21:35:59.696Z,101275.38
2022-07-28T21:38:29.628Z,101275.88
2022-07-28T21:43:47.325Z,101280.09
2022-07-28T21:46:19.061Z,101280.09
2022-07-28T21:48:48.201Z,101282.47
2022-07-28T21:51:26.325Z,101277.69
2022-07-28T21:53:56.289Z,101278.91
2022-07-28T21:56:27.519Z,101279.75
2022-07-28T21:58:56.154Z,101290.63
2022-07-28T22:01:27.052Z,101285.22
2022-07-28T22:03:56.378Z,101280.81
2022-07-28T22:06:25.194Z,101277.06
2022-07-28T22:08:54.918Z,101278.66
2022-07-28T22:11:23.695Z,101284.16
2022-07-28T22:13:54.847Z,101290.53
2022-07-28T22:16:23.205Z,101287.50
2022-07-28T22:18:51.979Z,101280.25
2022-07-28T22:21:21.332Z,101282.66
2022-07-28T22:23:52.296Z,101288.00
2022-07-28T22:26:20.824Z,101288.25
2022-07-28T22:28:49.101Z,101290.34
2022-07-28T22:31:20.334Z,101287.09
2022-07-28T22:33:48.787Z,101281.03
2022-07-28T22:36:17.619Z,101290.75
2022-07-28T22:38:46.530Z,101280.97
2022-07-28T22:41:15.032Z,101282.88
2022-07-28T22:43:44.562Z,101290.03
2022-07-28T22:46:15.228Z,101292.06
2022-07-28T22:48:48.659Z,101296.22
2022-07-28T22:51:17.929Z,101293.50
2022-07-28T22:53:47.911Z,101293.19
2022-07-28T22:56:26.303Z,101292.88
2022-07-28T22:59:04.045Z,101288.63
2022-07-28T23:01:32.693Z,101293.56
2022-07-28T23:04:04.176Z,101295.94
2022-07-28T23:06:36.669Z,101290.00
2022-07-28T23:09:05.597Z,101297.81
2022-07-28T23:11:34.258Z,101302.25
2022-07-28T23:14:02.622Z,101299.88
2022-07-28T23:16:31.726Z,101291.25
2022-07-28T23:19:00.843Z,101299.06
2022-07-28T23:21:30.816Z,101298.72
2022-07-28T23:23:59.548Z,101306.16
2022-07-28T23:26:28.100Z,101302.44
2022-07-28T23:28:57.089Z,101307.19
2022-07-28T23:31:25.815Z,101309.22
2022-07-28T23:33:57.530Z,101303.28
2022-07-28T23:36:27.867Z,101301.78
2022-07-28T23:39:00.467Z,101308.19
2022-07-28T23:41:29.034Z,101307.34
2022-07-28T23:43:58.224Z,101300.38
2022-07-28T23:46:27.078Z,101304.25
2022-07-28T23:48:55.662Z,101312.75
2022-07-28T23:51:41.140Z,101309.69
2022-07-28T23:54:14.546Z,101315.63
2022-07-28T23:56:43.486Z,101316.09
2022-07-28T23:59:14.295Z,101322.88
